Time;durP1;ratioP1;P1;durP2;ratioP2;P2;SDS_P1;SDS_P2;PMS_P1;PMS_P2;Temp;Humidity;BMP_temperature;BMP_pressure;BME280_temperature;BME280_humidity;BME280_pressure;Samples;Min_cycle;Max_cycle;Signal;HPM_P1;HPM_P2
2023/09/28 00:00:45;;;;;;;;;9.33;9.33;;;;;20.70;100.00;101388.78;5021094;28;45370;-73
2023/09/28 00:03:10;;;;;;;;;9.67;9.67;;;;;20.68;100.00;101390.69;5018412;28;45321;-74
2023/09/28 00:05:36;;;;;;;;;10.67;7.67;;;;;20.66;100.00;101392.66;5019001;28;45581;-74
2023/09/28 00:08:02;;;;;;;;;11.33;9.00;;;;;20.66;100.00;101397.19;5020529;28;45315;-74
2023/09/28 00:10:28;;;;;;;;;13.00;11.00;;;;;20.64;100.00;101408.06;5019022;28;45526;-73
2023/09/28 00:12:54;;;;;;;;;8.67;7.00;;;;;20.58;100.00;101395.09;5027533;28;45399;-74
2023/09/28 00:15:22;;;;;;;;;9.33;9.33;;;;;20.58;100.00;101405.03;5020450;28;45450;-74
2023/09/28 00:17:48;;;;;;;;;8.67;8.33;;;;;20.52;100.00;101411.72;5022474;28;45512;-73
2023/09/28 00:20:17;;;;;;;;;8.00;8.00;;;;;20.47;100.00;101413.94;5020878;28;45385;-73
2023/09/28 00:22:48;;;;;;;;;9.00;9.00;;;;;20.44;100.00;101408.78;5019407;28;45250;-74
2023/09/28 00:25:16;;;;;;;;;8.00;8.00;;;;;20.37;100.00;101402.19;5019195;28;45463;-74
2023/09/28 00:27:46;;;;;;;;;10.67;8.00;;;;;20.37;100.00;101412.94;5020593;28;46186;-74
2023/09/28 00:30:18;;;;;;;;;6.33;6.00;;;;;20.33;100.00;101413.28;5020650;28;45397;-73
2023/09/28 00:32:45;;;;;;;;;10.67;9.00;;;;;20.35;100.00;101424.78;5019151;28;45442;-73
2023/09/28 00:35:10;;;;;;;;;8.67;7.33;;;;;20.35;100.00;101427.47;5018513;28;45366;-74
2023/09/28 00:37:35;;;;;;;;;10.00;8.00;;;;;20.37;100.00;101428.19;5019976;28;45340;-74
2023/09/28 00:40:08;;;;;;;;;8.67;7.00;;;;;20.36;100.00;101431.84;5022023;28;45575;-74
2023/09/28 00:42:33;;;;;;;;;9.33;8.33;;;;;20.36;100.00;101439.91;5020733;28;45396;-73
2023/09/28 00:44:59;;;;;;;;;13.33;10.33;;;;;20.39;100.00;101451.28;5020082;28;45421;-74
2023/09/28 00:47:24;;;;;;;;;11.00;7.33;;;;;20.41;100.00;101452.03;5021143;28;46388;-73
2023/09/28 00:49:51;;;;;;;;;8.67;8.67;;;;;20.42;100.00;101448.34;5022286;28;45255;-73
2023/09/28 00:52:17;;;;;;;;;9.67;9.00;;;;;20.38;100.00;101437.97;5020180;28;45339;-73
2023/09/28 00:54:47;;;;;;;;;12.33;8.00;;;;;20.47;100.00;101448.00;5003437;28;45881;-73
2023/09/28 00:57:13;;;;;;;;;8.33;7.00;;;;;20.46;100.00;101447.13;5022732;28;45585;-74
2023/09/28 00:59:39;;;;;;;;;7.00;7.00;;;;;20.44;100.00;101454.47;5021515;28;45442;-73
2023/09/28 01:02:06;;;;;;;;;8.00;8.00;;;;;20.41;100.00;101443.09;5021432;28;45289;-74
2023/09/28 01:04:32;;;;;;;;;5.33;4.67;;;;;20.42;100.00;101442.97;5019401;28;45579;-74
2023/09/28 01:06:57;;;;;;;;;8.00;7.00;;;;;20.41;100.00;101441.28;5019011;28;45917;-74
2023/09/28 01:09:24;;;;;;;;;9.67;9.67;;;;;20.36;100.00;101439.91;5019837;28;45332;-73
2023/09/28 01:11:51;;;;;;;;;6.33;6.33;;;;;20.27;100.00;101426.22;5019707;28;45427;-73
2023/09/28 01:14:17;;;;;;;;;6.67;6.33;;;;;20.26;100.00;101421.81;5017821;28;45285;-73
2023/09/28 01:16:42;;;;;;;;;8.00;7.00;;;;;20.24;100.00;101404.94;5018809;28;45351;-73
2023/09/28 01:19:09;;;;;;;;;12.00;8.33;;;;;20.22;100.00;101406.88;5019136;28;45210;-74
2023/09/28 01:21:34;;;;;;;;;8.00;7.00;;;;;20.14;100.00;101416.53;5020165;28;45462;-74
2023/09/28 01:24:00;;;;;;;;;8.00;6.33;;;;;20.05;100.00;101417.22;5019560;28;45348;-74
2023/09/28 01:26:30;;;;;;;;;6.00;6.00;;;;;20.00;100.00;101412.19;5020692;28;45981;-74
2023/09/28 01:28:56;;;;;;;;;9.00;7.00;;;;;20.05;100.00;101438.72;5018976;28;45326;-73
2023/09/28 01:31:21;;;;;;;;;6.67;6.67;;;;;20.05;100.00;101447.63;5020137;28;45302;-73
2023/09/28 01:33:47;;;;;;;;;8.33;6.67;;;;;20.02;100.00;101442.50;5018298;28;45194;-74
2023/09/28 01:36:12;;;;;;;;;6.33;6.33;;;;;19.95;100.00;101445.75;5020770;28;45269;-73
2023/09/28 01:38:47;;;;;;;;;11.33;7.00;;;;;20.01;100.00;101462.25;5019198;28;45262;-74
2023/09/28 01:41:12;;;;;;;;;8.00;7.00;;;;;19.92;100.00;101443.31;5019252;28;45565;-73
2023/09/28 01:43:37;;;;;;;;;7.33;6.33;;;;;20.01;100.00;101459.56;5019315;28;45277;-73
2023/09/28 01:46:03;;;;;;;;;6.33;6.00;;;;;20.02;100.00;101449.69;5017948;28;54000;-74
2023/09/28 01:48:28;;;;;;;;;5.33;5.00;;;;;19.99;100.00;101452.63;5019253;28;45284;-73
2023/09/28 01:50:54;;;;;;;;;7.00;7.00;;;;;19.97;100.00;101446.50;5019189;28;45431;-74
2023/09/28 01:53:19;;;;;;;;;7.67;6.00;;;;;20.04;100.00;101462.03;5018869;28;45329;-73
2023/09/28 01:55:46;;;;;;;;;6.00;6.00;;;;;20.09;100.00;101473.25;5018189;28;45569;-74
2023/09/28 01:58:12;;;;;;;;;5.00;5.00;;;;;20.13;100.00;101479.25;5005477;28;45373;-74
2023/09/28 02:00:37;;;;;;;;;5.00;5.00;;;;;20.13;100.00;101484.63;5018769;28;45356;-74
2023/09/28 02:03:04;;;;;;;;;7.00;7.00;;;;;20.17;100.00;101468.16;5019931;28;45294;-74
2023/09/28 02:05:32;;;;;;;;;8.00;6.00;;;;;20.16;100.00;101468.28;5019334;28;45305;-74
2023/09/28 02:07:58;;;;;;;;;6.33;5.00;;;;;20.09;100.00;101454.47;5017298;28;45369;-74
2023/09/28 02:10:24;;;;;;;;;5.00;5.00;;;;;20.11;100.00;101460.59;5017274;28;45356;-73
2023/09/28 02:12:50;;;;;;;;;8.00;5.67;;;;;20.14;100.00;101462.19;5018907;28;45350;-73
2023/09/28 02:15:16;;;;;;;;;6.67;4.00;;;;;20.23;100.00;101467.69;5018934;28;46294;-74
2023/09/28 02:17:45;;;;;;;;;4.67;4.67;;;;;20.26;100.00;101467.50;5018562;28;45355;-74
2023/09/28 02:20:16;;;;;;;;;7.00;5.67;;;;;20.15;100.00;101451.34;5017925;28;45308;-74
2023/09/28 02:22:46;;;;;;;;;5.67;4.33;;;;;20.20;100.00;101456.31;5016981;28;45888;-74
2023/09/28 02:25:17;;;;;;;;;5.00;5.00;;;;;20.26;100.00;101464.81;5018637;28;45303;-74
2023/09/28 02:27:43;;;;;;;;;7.00;6.00;;;;;20.13;100.00;101433.59;5018609;28;45451;-74
2023/09/28 02:30:11;;;;;;;;;5.00;4.00;;;;;20.27;100.00;101465.66;5017912;28;45479;-74
2023/09/28 02:32:38;;;;;;;;;7.67;7.00;;;;;20.29;100.00;101462.88;5018609;28;45524;-73
2023/09/28 02:35:05;;;;;;;;;4.00;4.00;;;;;20.29;100.00;101466.38;5018661;28;46682;-74
2023/09/28 02:37:31;;;;;;;;;5.00;5.00;;;;;20.16;100.00;101455.72;5017536;28;45360;-74
2023/09/28 02:39:56;;;;;;;;;5.67;5.00;;;;;20.23;100.00;101462.31;5018695;28;50347;-74
2023/09/28 02:42:21;;;;;;;;;4.00;4.00;;;;;20.24;100.00;101460.50;5006045;28;45378;-73
2023/09/28 02:44:47;;;;;;;;;6.00;6.00;;;;;20.29;100.00;101469.09;5016847;28;50120;-74
2023/09/28 02:47:13;;;;;;;;;7.33;5.00;;;;;20.21;100.00;101452.69;5019084;28;45329;-74
2023/09/28 02:49:38;;;;;;;;;8.67;5.00;;;;;20.26;100.00;101458.53;5017123;28;45341;-73
2023/09/28 02:52:03;;;;;;;;;4.67;4.67;;;;;20.23;100.00;101454.25;5019142;28;45423;-74
2023/09/28 02:54:30;;;;;;;;;6.00;6.00;;;;;20.22;100.00;101462.47;5018750;28;45285;-74
2023/09/28 02:56:55;;;;;;;;;5.33;4.00;;;;;20.12;100.00;101458.75;5020212;28;45404;-73
2023/09/28 02:59:24;;;;;;;;;5.33;5.00;;;;;20.15;100.00;101464.75;5020842;28;45226;-75
2023/09/28 03:01:49;;;;;;;;;6.00;5.00;;;;;20.17;100.00;101457.44;5018959;28;45524;-73
2023/09/28 03:04:18;;;;;;;;;7.33;5.67;;;;;20.18;100.00;101482.47;5018319;28;45493;-75
2023/09/28 03:06:45;;;;;;;;;4.00;3.67;;;;;20.12;100.00;101491.81;5018107;28;45394;-74
2023/09/28 03:09:12;;;;;;;;;6.67;4.00;;;;;20.12;100.00;101502.56;5017719;28;45382;-73
2023/09/28 03:11:39;;;;;;;;;2.67;2.67;;;;;20.05;100.00;101501.34;5017249;28;45495;-73
2023/09/28 03:14:05;;;;;;;;;3.33;3.33;;;;;19.94;98.03;101490.53;5018335;28;45398;-73
2023/09/28 03:16:30;;;;;;;;;2.00;1.67;;;;;19.98;90.23;101505.47;5016754;28;45510;-74
2023/09/28 03:18:57;;;;;;;;;4.33;3.00;;;;;19.88;89.63;101490.16;5015950;28;45364;-74
2023/09/28 03:21:22;;;;;;;;;4.00;2.33;;;;;19.90;88.31;101509.69;5019182;28;45503;-73
2023/09/28 03:23:48;;;;;;;;;4.33;3.00;;;;;19.86;83.91;101511.72;5015737;28;46217;-74
2023/09/28 03:26:13;;;;;;;;;1.33;1.33;;;;;19.79;83.01;101525.75;5016711;28;45432;-74
2023/09/28 03:28:38;;;;;;;;;2.67;2.67;;;;;19.64;80.68;101514.28;5018924;28;45518;-73
2023/09/28 03:31:05;;;;;;;;;1.67;1.67;;;;;19.66;82.02;101525.78;5017461;28;45951;-73
2023/09/28 03:33:31;;;;;;;;;1.67;1.00;;;;;19.60;80.38;101521.72;5017729;28;46139;-73
2023/09/28 03:35:56;;;;;;;;;3.33;1.00;;;;;19.48;81.14;101519.06;5018800;28;45340;-74
2023/09/28 03:38:21;;;;;;;;;1.00;1.00;;;;;19.54;81.24;101529.34;5020540;28;45305;-74
2023/09/28 03:40:47;;;;;;;;;2.00;1.00;;;;;19.48;81.32;101541.41;5020993;28;45706;-73
2023/09/28 03:43:12;;;;;;;;;1.00;1.00;;;;;19.49;81.25;101547.63;5021402;28;46172;-74
2023/09/28 03:45:39;;;;;;;;;2.33;1.33;;;;;19.47;82.04;101541.53;5021279;28;45266;-74
2023/09/28 03:48:04;;;;;;;;;2.67;1.33;;;;;19.42;80.88;101538.31;5021878;28;45430;-73
2023/09/28 03:50:30;;;;;;;;;3.00;1.00;;;;;19.31;79.46;101532.81;5021299;28;45454;-73
2023/09/28 03:52:55;;;;;;;;;1.00;1.00;;;;;19.33;81.09;101544.31;5021540;28;46226;-74
2023/09/28 03:55:24;;;;;;;;;2.67;0.67;;;;;19.30;81.65;101531.13;5021463;28;45618;-74
2023/09/28 03:57:50;;;;;;;;;2.00;1.00;;;;;19.32;83.44;101537.22;5021372;28;45400;-74
2023/09/28 04:00:17;;;;;;;;;3.67;1.67;;;;;19.32;87.11;101539.91;5018685;28;45226;-73
2023/09/28 04:02:50;;;;;;;;;7.00;2.33;;;;;19.23;85.15;101515.47;5021085;28;46088;-73
2023/09/28 04:05:15;;;;;;;;;3.00;2.00;;;;;19.24;83.14;101529.72;5019831;28;45226;-73
2023/09/28 04:07:41;;;;;;;;;3.00;1.67;;;;;19.22;86.71;101543.25;5020089;28;45900;-73
2023/09/28 04:10:08;;;;;;;;;2.00;2.00;;;;;19.16;86.62;101532.97;5019223;28;45482;-74
2023/09/28 04:12:33;;;;;;;;;4.00;1.67;;;;;19.16;88.05;101542.81;5020441;28;45416;-74
2023/09/28 04:14:58;;;;;;;;;4.00;1.33;;;;;19.11;84.46;101544.97;5020568;28;45358;-73
2023/09/28 04:17:24;;;;;;;;;3.00;2.00;;;;;19.10;85.66;101543.25;5020904;28;45378;-74
2023/09/28 04:19:49;;;;;;;;;6.00;2.00;;;;;19.11;87.18;101553.00;5018620;28;45715;-73
2023/09/28 04:22:16;;;;;;;;;3.00;2.00;;;;;19.15;84.98;101557.19;5020361;28;52912;-74
2023/09/28 04:24:42;;;;;;;;;2.67;1.33;;;;;19.12;87.50;101558.28;5019807;28;45314;-73
2023/09/28 04:27:08;;;;;;;;;1.00;1.00;;;;;19.16;86.14;101569.66;5020939;28;45439;-73
2023/09/28 04:29:33;;;;;;;;;1.00;1.00;;;;;19.16;86.37;101577.69;5018832;28;45470;-73
2023/09/28 04:31:59;;;;;;;;;7.67;1.33;;;;;19.14;85.09;101568.91;5020607;28;46136;-73
2023/09/28 04:34:24;;;;;;;;;5.00;3.33;;;;;19.11;88.21;101564.59;5019201;28;45313;-73
2023/09/28 04:36:50;;;;;;;;;2.67;2.00;;;;;19.16;86.76;101569.66;5020366;28;45497;-73
2023/09/28 04:39:17;;;;;;;;;1.33;1.33;;;;;19.10;84.85;101564.72;5019989;28;45483;-74
2023/09/28 04:41:43;;;;;;;;;4.67;2.00;;;;;19.14;86.95;101582.31;5020651;28;45440;-73
2023/09/28 04:44:09;;;;;;;;;2.00;2.00;;;;;19.13;86.36;101572.53;5021562;28;45428;-74
2023/09/28 04:46:34;;;;;;;;;5.00;3.00;;;;;19.14;86.57;101569.72;5021648;28;45541;-73
2023/09/28 04:49:00;;;;;;;;;2.00;1.67;;;;;19.12;85.89;101573.50;5021149;28;45367;-73
2023/09/28 04:51:25;;;;;;;;;1.67;1.67;;;;;19.11;87.70;101575.31;5019769;28;47168;-73
2023/09/28 04:53:51;;;;;;;;;3.00;2.00;;;;;19.02;89.84;101557.22;5022036;28;45476;-73
2023/09/28 04:56:16;;;;;;;;;4.33;2.00;;;;;19.09;90.71;101579.09;5022368;28;45459;-73
2023/09/28 04:58:42;;;;;;;;;5.00;2.00;;;;;19.07;89.77;101572.97;5018261;28;45461;-74
2023/09/28 05:01:07;;;;;;;;;5.33;3.00;;;;;19.02;91.76;101570.59;5020711;28;54371;-74
2023/09/28 05:03:33;;;;;;;;;5.00;2.00;;;;;19.02;90.38;101564.38;5009744;28;45410;-73
2023/09/28 05:05:58;;;;;;;;;3.00;2.00;;;;;18.99;90.17;101569.97;5020408;28;45328;-74
2023/09/28 05:08:24;;;;;;;;;4.67;2.00;;;;;18.97;91.87;101574.59;5020060;28;45443;-74
2023/09/28 05:10:50;;;;;;;;;6.33;2.67;;;;;18.90;92.13;101566.13;5019847;28;45538;-74
2023/09/28 05:13:16;;;;;;;;;4.67;2.67;;;;;18.88;91.32;101577.91;5019881;28;45379;-73
2023/09/28 05:15:41;;;;;;;;;3.33;1.67;;;;;18.87;91.26;101576.19;5020304;28;45281;-74
2023/09/28 05:18:07;;;;;;;;;7.00;2.33;;;;;18.74;93.07;101570.81;5017632;28;45391;-74
2023/09/28 05:20:32;;;;;;;;;2.00;2.00;;;;;18.76;95.34;101587.66;5018585;28;46235;-73
2023/09/28 05:22:58;;;;;;;;;2.00;2.00;;;;;18.76;95.14;101584.97;5018864;28;46522;-73
2023/09/28 05:25:24;;;;;;;;;3.00;1.00;;;;;18.75;93.30;101587.78;5020871;28;45419;-74
2023/09/28 05:27:49;;;;;;;;;2.00;1.00;;;;;18.71;91.85;101589.78;5017775;28;45619;-73
2023/09/28 05:30:15;;;;;;;;;7.33;3.33;;;;;18.64;89.27;101580.47;5019715;28;45427;-73
2023/09/28 05:32:41;;;;;;;;;2.67;1.00;;;;;18.64;90.08;101581.31;5018203;28;45361;-73
2023/09/28 05:35:07;;;;;;;;;3.00;1.00;;;;;18.71;89.87;101592.47;5019632;28;45335;-73
2023/09/28 05:37:32;;;;;;;;;1.67;1.00;;;;;18.62;89.43;101582.38;5008386;28;45309;-74
2023/09/28 05:40:00;;;;;;;;;5.67;1.00;;;;;18.59;87.88;101586.13;5019883;28;45369;-73
2023/09/28 05:42:25;;;;;;;;;7.67;1.00;;;;;18.64;91.18;101608.13;5019646;28;45406;-73
2023/09/28 05:44:52;;;;;;;;;3.00;2.00;;;;;18.60;92.92;101605.72;5019705;28;45495;-73
2023/09/28 05:47:20;;;;;;;;;4.33;2.00;;;;;18.60;88.51;101613.78;5018842;28;45491;-74
2023/09/28 05:49:45;;;;;;;;;2.67;2.00;;;;;18.56;90.50;101614.94;5019999;28;45348;-73
2023/09/28 05:52:10;;;;;;;;;3.00;2.00;;;;;18.45;89.32;101617.47;5019685;28;45392;-73
2023/09/28 05:54:36;;;;;;;;;4.00;2.33;;;;;18.43;88.28;101625.59;5017533;28;45459;-73
2023/09/28 05:57:01;;;;;;;;;3.67;1.00;;;;;18.33;89.84;101604.88;5017445;28;45401;-73
2023/09/28 05:59:27;;;;;;;;;4.67;2.00;;;;;18.41;89.69;101616.81;5019411;28;46772;-73
2023/09/28 06:01:53;;;;;;;;;5.00;3.00;;;;;18.31;92.19;101609.47;5019427;28;45523;-73
2023/09/28 06:04:18;;;;;;;;;3.00;2.00;;;;;18.36;91.22;101636.81;5019179;28;45330;-73
2023/09/28 06:06:43;;;;;;;;;2.67;1.00;;;;;18.32;92.82;101627.28;5017750;28;45325;-73
2023/09/28 06:09:09;;;;;;;;;4.67;3.00;;;;;18.27;94.04;101624.03;5014774;28;46717;-72
2023/09/28 06:11:34;;;;;;;;;3.00;1.00;;;;;18.27;95.36;101624.03;5019125;28;45499;-73
2023/09/28 06:13:59;;;;;;;;;0.33;0.00;;;;;18.21;91.42;101631.53;5018428;28;45198;-73
2023/09/28 06:16:25;;;;;;;;;6.67;1.00;;;;;18.20;94.53;101636.97;5016583;28;45417;-73
2023/09/28 06:18:50;;;;;;;;;2.00;1.00;;;;;18.10;94.29;101627.81;5016481;28;45792;-73
2023/09/28 06:21:16;;;;;;;;;5.00;3.00;;;;;18.10;94.05;101633.16;5018970;28;45336;-73
2023/09/28 06:23:41;;;;;;;;;9.33;3.00;;;;;18.13;95.88;101644.53;5017474;28;45458;-73
2023/09/28 06:26:06;;;;;;;;;4.33;1.67;;;;;18.11;96.95;101649.13;5018648;28;45215;-73
2023/09/28 06:28:32;;;;;;;;;2.00;2.00;;;;;18.08;96.80;101649.34;5019055;28;45511;-72
2023/09/28 06:30:58;;;;;;;;;2.67;2.67;;;;;17.93;96.61;101628.06;5019020;28;45478;-73
2023/09/28 06:33:27;;;;;;;;;2.00;2.00;;;;;17.95;97.22;101643.06;5019492;28;45594;-73
2023/09/28 06:35:55;;;;;;;;;7.33;3.33;;;;;17.96;100.00;101652.81;5022338;28;45555;-73
2023/09/28 06:38:21;;;;;;;;;3.33;2.33;;;;;17.98;98.40;101661.59;5018500;28;45714;-73
2023/09/28 06:40:48;;;;;;;;;2.67;1.00;;;;;17.97;96.81;101670.56;5019634;28;45293;-73
2023/09/28 06:43:14;;;;;;;;;2.00;2.00;;;;;17.97;93.61;101664.34;5019526;28;45253;-72
2023/09/28 06:45:40;;;;;;;;;6.00;3.00;;;;;17.97;93.77;101669.72;5014436;28;45341;-72
2023/09/28 06:48:07;;;;;;;;;6.00;3.67;;;;;17.96;95.52;101662.66;5014074;28;45566;-73
2023/09/28 06:50:33;;;;;;;;;4.33;2.00;;;;;17.92;94.49;101659.31;5018471;28;45427;-73
2023/09/28 06:52:59;;;;;;;;;5.00;2.33;;;;;17.95;95.57;101666.28;5016650;28;45371;-73
2023/09/28 06:55:24;;;;;;;;;6.67;3.00;;;;;17.95;96.25;101661.78;5017208;28;50533;-73
2023/09/28 06:57:50;;;;;;;;;4.67;2.67;;;;;17.99;92.40;101666.00;5018577;28;46043;-73
2023/09/28 07:00:16;;;;;;;;;2.00;1.67;;;;;17.95;95.29;101661.78;5016031;28;45562;-73
2023/09/28 07:02:47;;;;;;;;;2.00;2.00;;;;;17.97;92.38;101654.53;5015379;28;45835;-73
2023/09/28 07:05:14;;;;;;;;;4.67;3.00;;;;;17.97;91.84;101659.00;5017754;28;45288;-73
2023/09/28 07:07:39;;;;;;;;;4.00;3.00;;;;;17.92;92.23;101650.44;5017450;28;46388;-74
2023/09/28 07:10:05;;;;;;;;;4.67;3.00;;;;;18.00;90.80;101654.31;5018099;28;45431;-73
2023/09/28 07:12:30;;;;;;;;;1.67;1.67;;;;;17.95;92.52;101648.41;5019120;28;45411;-73
2023/09/28 07:14:56;;;;;;;;;4.00;0.67;;;;;18.12;92.79;101666.06;5022023;28;45249;-73
2023/09/28 07:17:22;;;;;;;;;2.33;1.00;;;;;18.12;91.42;101658.03;5011466;28;46272;-73
2023/09/28 07:19:48;;;;;;;;;6.33;3.00;;;;;18.18;94.04;101666.53;5022297;28;51836;-73
2023/09/28 07:22:15;;;;;;;;;7.33;3.00;;;;;18.24;92.88;101665.25;5020266;28;45362;-73
2023/09/28 07:24:40;;;;;;;;;7.67;1.00;;;;;18.23;93.74;101676.91;5020425;28;45322;-72
2023/09/28 07:27:05;;;;;;;;;2.33;2.33;;;;;18.24;91.07;101670.63;5022036;28;45400;-73
2023/09/28 07:29:31;;;;;;;;;2.00;1.00;;;;;18.28;89.73;101695.38;5021938;28;45328;-73
2023/09/28 07:31:56;;;;;;;;;3.00;1.00;;;;;18.32;92.25;101700.44;5020116;28;45397;-72
2023/09/28 07:34:22;;;;;;;;;6.67;2.00;;;;;18.41;90.75;101707.00;5019591;28;45576;-73
2023/09/28 07:36:47;;;;;;;;;4.33;2.00;;;;;18.45;94.03;101705.88;5021931;28;45626;-73
2023/09/28 07:39:13;;;;;;;;;3.00;3.00;;;;;18.47;93.82;101701.25;5020090;28;53224;-73
2023/09/28 07:41:39;;;;;;;;;4.00;2.00;;;;;18.50;88.82;101706.44;5020974;28;45360;-73
2023/09/28 07:44:04;;;;;;;;;5.33;3.67;;;;;18.50;86.45;101696.59;5021434;28;45320;-73
2023/09/28 07:46:30;;;;;;;;;1.00;1.00;;;;;18.60;89.35;101708.41;5021351;28;46273;-73
2023/09/28 07:48:56;;;;;;;;;3.33;2.33;;;;;18.64;87.03;101706.41;5020984;28;45304;-72
2023/09/28 07:51:21;;;;;;;;;5.33;2.00;;;;;18.54;86.05;101692.75;5020865;28;45310;-73
2023/09/28 07:53:47;;;;;;;;;2.00;1.00;;;;;18.71;86.48;101708.56;5019552;28;46085;-74
2023/09/28 07:56:12;;;;;;;;;2.00;2.00;;;;;18.71;84.47;101705.03;5021063;28;57804;-73
2023/09/28 07:58:37;;;;;;;;;3.00;2.00;;;;;18.81;86.12;101708.81;5019185;28;55020;-73
2023/09/28 08:01:03;;;;;;;;;2.00;0.00;;;;;18.88;84.77;101703.91;5021982;28;45253;-73
2023/09/28 08:03:28;;;;;;;;;4.00;1.00;;;;;18.93;87.04;101701.75;5020469;28;45538;-73
2023/09/28 08:05:54;;;;;;;;;4.33;2.00;;;;;19.02;83.49;101719.91;5021166;28;45284;-72
2023/09/28 08:08:20;;;;;;;;;4.67;1.33;;;;;19.07;83.15;101709.72;5020259;28;45449;-73
2023/09/28 08:10:45;;;;;;;;;1.33;1.33;;;;;19.09;83.39;101705.13;5022046;28;45365;-73
2023/09/28 08:13:10;;;;;;;;;3.00;2.00;;;;;19.20;83.63;101710.63;5021676;28;45316;-73
2023/09/28 08:15:36;;;;;;;;;3.33;2.00;;;;;19.22;81.19;101696.13;5021098;28;45401;-73
2023/09/28 08:18:02;;;;;;;;;5.00;3.00;;;;;19.32;81.46;101719.63;5019915;28;45462;-73
2023/09/28 08:20:27;;;;;;;;;5.67;2.00;;;;;19.32;81.68;101716.94;5021153;28;45530;-73
2023/09/28 08:22:52;;;;;;;;;3.50;1.00;;;;;19.40;81.05;101728.03;5020304;28;45321;-73
2023/09/28 08:25:18;;;;;;;;;3.67;2.33;;;;;19.40;81.28;101736.97;5018971;28;55008;-73
2023/09/28 08:27:43;;;;;;;;;1.00;1.00;;;;;19.47;81.03;101748.13;5021072;28;45380;-73
2023/09/28 08:30:10;;;;;;;;;6.33;2.00;;;;;19.59;81.58;101758.00;5020232;28;45345;-73
2023/09/28 08:32:35;;;;;;;;;3.00;2.00;;;;;19.66;81.58;101751.25;5021574;28;46389;-73
2023/09/28 08:35:00;;;;;;;;;4.00;2.00;;;;;19.86;79.27;101757.91;5021041;28;45281;-73
2023/09/28 08:37:26;;;;;;;;;4.33;2.00;;;;;19.96;79.10;101761.66;5019899;28;45487;-73
2023/09/28 08:39:52;;;;;;;;;1.67;1.33;;;;;19.99;79.02;101773.00;5019818;28;45740;-73
2023/09/28 08:42:23;;;;;;;;;4.00;2.33;;;;;20.02;76.38;101767.44;5020592;28;45449;-73
2023/09/28 08:44:52;;;;;;;;;5.00;2.00;;;;;20.07;79.87;101757.22;5019922;28;45364;-74
2023/09/28 08:47:19;;;;;;;;;1.33;1.00;;;;;20.10;75.20;101740.88;5020553;28;45317;-73
2023/09/28 08:49:50;;;;;;;;;2.67;1.33;;;;;20.35;76.76;101772.25;5021351;28;45529;-73
2023/09/28 08:52:16;;;;;;;;;3.33;1.33;;;;;20.49;74.79;101763.16;5018643;28;45581;-73
2023/09/28 08:54:42;;;;;;;;;1.33;1.33;;;;;20.66;75.46;101752.91;5022040;28;45426;-72
2023/09/28 08:57:10;;;;;;;;;2.33;2.33;;;;;20.81;74.29;101742.81;5019724;28;45202;-73
2023/09/28 08:59:37;;;;;;;;;3.00;1.00;;;;;20.86;73.63;101737.09;5019916;28;45395;-73
2023/09/28 09:02:03;;;;;;;;;6.67;3.00;;;;;20.91;76.14;101737.63;5020419;28;45338;-73
2023/09/28 09:04:31;;;;;;;;;3.67;1.00;;;;;20.88;74.39;101719.88;5019669;28;45421;-73
2023/09/28 09:06:59;;;;;;;;;4.50;2.00;;;;;21.05;71.55;101735.59;5018893;28;45367;-73
2023/09/28 09:09:24;;;;;;;;;3.67;1.00;;;;;20.97;73.13;101719.19;5018941;28;45286;-73
2023/09/28 09:11:52;;;;;;;;;7.00;2.67;;;;;21.03;71.54;101724.09;5020171;28;45442;-73
2023/09/28 09:14:18;;;;;;;;;1.67;1.00;;;;;20.93;68.58;101717.69;5020249;28;46493;-75
2023/09/28 09:16:43;;;;;;;;;1.00;1.00;;;;;20.84;70.83;101718.41;5019227;28;45381;-73
2023/09/28 09:19:14;;;;;;;;;3.33;2.00;;;;;20.90;70.47;101727.84;5019233;28;45332;-73
2023/09/28 09:21:41;;;;;;;;;3.33;1.33;;;;;20.96;69.69;101728.22;5019660;28;45293;-73
2023/09/28 09:24:10;;;;;;;;;3.33;2.00;;;;;21.02;70.35;101718.81;5020101;28;45382;-73
2023/09/28 09:26:40;;;;;;;;;4.33;2.33;;;;;21.11;72.54;101721.69;5017686;28;45317;-73
2023/09/28 09:29:07;;;;;;;;;6.00;2.33;;;;;21.22;72.16;101720.88;5018774;28;45428;-74
2023/09/28 09:31:33;;;;;;;;;4.00;2.00;;;;;21.29;69.66;101725.69;5020986;28;45367;-73
2023/09/28 09:34:02;;;;;;;;;1.00;1.00;;;;;21.25;68.02;101729.59;5019737;28;45916;-73
2023/09/28 09:36:27;;;;;;;;;3.33;1.00;;;;;21.16;69.38;101740.19;5018581;28;45218;-73
2023/09/28 09:38:53;;;;;;;;;2.00;2.00;;;;;20.96;68.03;101728.22;5019672;28;45230;-73
2023/09/28 09:41:18;;;;;;;;;2.00;1.00;;;;;20.94;68.74;101743.59;5020225;28;45314;-73
2023/09/28 09:43:44;;;;;;;;;4.33;2.67;;;;;20.75;69.67;101721.75;5019676;28;45326;-73
2023/09/28 09:46:09;;;;;;;;;2.00;1.67;;;;;20.87;70.56;101739.69;5019565;28;45439;-73
2023/09/28 09:48:41;;;;;;;;;1.33;1.33;;;;;20.88;69.90;101744.06;5020558;28;45320;-73
2023/09/28 09:51:10;;;;;;;;;2.67;1.33;;;;;20.91;69.44;101745.69;5019582;28;45557;-73
2023/09/28 09:53:39;;;;;;;;;2.33;1.33;;;;;20.83;67.12;101746.25;5019144;28;46222;-73
2023/09/28 09:56:05;;;;;;;;;6.00;3.33;;;;;20.79;67.56;101742.06;5018559;28;45314;-73
2023/09/28 09:58:49;;;;;;;;;4.67;1.00;;;;;20.84;67.05;101749.81;5017593;28;45534;-73
2023/09/28 10:01:16;;;;;;;;;4.67;1.67;;;;;20.88;67.91;101746.75;5020011;28;45370;-73
2023/09/28 10:03:52;;;;;;;;;5.67;1.00;;;;;20.94;71.28;101734.69;5018223;28;45690;-73
2023/09/28 10:06:19;;;;;;;;;3.00;2.00;;;;;21.03;71.49;101734.88;5019700;28;45329;-73
2023/09/28 10:08:46;;;;;;;;;4.00;2.33;;;;;21.11;67.66;101729.78;5019314;28;45328;-73
2023/09/28 10:11:13;;;;;;;;;5.00;3.00;;;;;21.25;68.87;101731.41;5017909;28;45438;-73
2023/09/28 10:13:39;;;;;;;;;3.00;3.00;;;;;21.37;69.82;101727.75;5016379;28;45584;-73
2023/09/28 10:16:07;;;;;;;;;7.00;3.67;;;;;21.54;69.04;101719.22;5018937;28;45286;-73
2023/09/28 10:18:35;;;;;;;;;1.00;1.00;;;;;21.59;66.35;101683.88;5018545;28;45312;-73
2023/09/28 10:21:01;;;;;;;;;5.00;3.00;;;;;21.63;64.60;101698.78;5005710;28;45629;-73
2023/09/28 10:23:27;;;;;;;;;3.33;2.00;;;;;21.68;64.75;101704.69;5019197;28;45491;-73
2023/09/28 10:25:54;;;;;;;;;2.00;1.00;;;;;21.67;65.02;101714.59;5020082;28;45343;-73
2023/09/28 10:28:20;;;;;;;;;2.00;2.00;;;;;21.71;63.90;101712.53;5018765;28;45384;-73
2023/09/28 10:30:45;;;;;;;;;4.00;1.00;;;;;21.72;64.98;101715.09;5016999;28;45897;-73
2023/09/28 10:33:12;;;;;;;;;1.67;1.33;;;;;21.59;67.29;101686.56;5016748;28;56775;-73
2023/09/28 10:35:39;;;;;;;;;4.00;1.33;;;;;21.78;64.97;101713.75;5019088;28;45491;-73
2023/09/28 10:38:17;;;;;;;;;1.33;1.33;;;;;21.77;65.42;101710.19;5018914;28;45305;-73
2023/09/28 10:40:48;;;;;;;;;1.67;1.00;;;;;21.76;64.41;101702.22;5017425;28;45643;-73
2023/09/28 10:43:29;;;;;;;;;2.00;2.00;;;;;21.69;62.94;101684.88;5016152;28;45324;-73
2023/09/28 10:45:55;;;;;;;;;2.00;1.00;;;;;21.66;61.95;101669.78;5018695;28;45478;-73
2023/09/28 10:48:20;;;;;;;;;3.00;0.67;;;;;21.79;64.65;101689.38;5017871;28;45278;-73
2023/09/28 10:50:47;;;;;;;;;3.33;1.00;;;;;21.78;63.95;101671.53;5018069;28;45534;-72
2023/09/28 10:53:12;;;;;;;;;4.00;1.00;;;;;22.01;61.81;101695.78;5018262;28;45933;-73
2023/09/28 10:55:41;;;;;;;;;1.00;0.67;;;;;22.07;59.96;101693.44;5019478;28;45279;-73
2023/09/28 10:58:07;;;;;;;;;2.67;1.00;;;;;22.06;59.59;101677.38;5037964;28;45403;-73
2023/09/28 11:00:34;;;;;;;;;4.67;1.33;;;;;22.15;59.66;101684.75;5018025;28;45380;-73
2023/09/28 11:02:59;;;;;;;;;3.33;2.67;;;;;22.15;58.47;101682.88;5005207;28;45424;-73
2023/09/28 11:05:25;;;;;;;;;1.67;1.00;;;;;22.10;60.92;101668.06;5016568;28;45800;-73
2023/09/28 11:07:51;;;;;;;;;3.67;1.67;;;;;22.16;61.23;101678.34;5019010;28;45476;-74
2023/09/28 11:10:16;;;;;;;;;2.00;1.00;;;;;22.24;62.35;101684.84;5018722;28;45253;-73
2023/09/28 11:12:42;;;;;;;;;3.00;1.33;;;;;22.17;62.62;101674.69;5016971;28;48513;-73
2023/09/28 11:15:09;;;;;;;;;4.33;2.00;;;;;22.21;63.22;101678.84;5018652;28;45314;-73
2023/09/28 11:17:35;;;;;;;;;6.67;3.00;;;;;22.32;63.89;101690.44;5017467;28;46527;-73